Time;durP1;ratioP1;P1;durP2;ratioP2;P2;SDS_P1;SDS_P2;PMS_P1;PMS_P2;Temp;Humidity;BMP_temperature;BMP_pressure;BME280_temperature;BME280_humidity;BME280_pressure;Samples;Min_cycle;Max_cycle;Signal;HPM_P1;HPM_P2
2022/11/09 00:02:04;;;;;;;60.35;36.78;;;;;;;10.94;72.14;100109.59;5013077;28;20033;-69
2022/11/09 00:04:30;;;;;;;69.03;37.10;;;;;;;10.96;72.62;100110.09;5012204;28;20030;-69
2022/11/09 00:06:55;;;;;;;64.03;40.05;;;;;;;10.84;72.61;100118.25;5012731;28;20040;-70
2022/11/09 00:09:21;;;;;;;63.75;37.88;;;;;;;10.89;73.12;100118.13;4995643;28;20025;-70
2022/11/09 00:11:46;;;;;;;70.97;38.85;;;;;;;10.88;73.13;100119.28;4995461;28;20057;-69
2022/11/09 00:14:16;;;;;;;65.63;39.47;;;;;;;10.92;73.41;100123.94;5012077;28;20018;-70
2022/11/09 00:16:41;;;;;;;63.33;38.65;;;;;;;10.88;73.75;100122.09;5012720;28;20018;-70
2022/11/09 00:19:07;;;;;;;63.70;38.15;;;;;;;10.85;73.98;100119.91;4994491;28;20132;-70
2022/11/09 00:21:32;;;;;;;64.28;37.33;;;;;;;10.87;73.68;100112.03;5012869;28;20029;-69
2022/11/09 00:23:58;;;;;;;65.50;38.28;;;;;;;10.89;74.13;100120.94;5012311;28;20497;-70
2022/11/09 00:26:24;;;;;;;62.22;37.50;;;;;;;10.92;73.49;100120.28;4995080;28;20026;-70
2022/11/09 00:28:49;;;;;;;72.15;37.50;;;;;;;10.94;73.51;100118.81;5010466;28;20080;-69
2022/11/09 00:31:24;;;;;;;56.70;36.63;;;;;;;10.98;73.42;100112.59;5012740;28;20099;-70
2022/11/09 00:33:52;;;;;;;60.60;37.35;;;;;;;10.95;73.45;100114.03;5012063;28;20056;-69
2022/11/09 00:36:19;;;;;;;72.85;37.55;;;;;;;10.95;73.60;100108.44;5027655;28;20025;-70
2022/11/09 00:38:50;;;;;;;69.18;35.45;;;;;;;10.94;73.07;100106.78;5012486;28;20056;-70
2022/11/09 00:41:17;;;;;;;59.08;35.83;;;;;;;10.90;73.48;100103.81;5012387;28;20022;-70
2022/11/09 00:43:42;;;;;;;64.68;37.13;;;;;;;10.93;72.96;100105.97;5012157;28;20034;-70
2022/11/09 00:46:08;;;;;;;61.58;36.70;;;;;;;10.82;73.36;100104.59;5012144;28;20091;-69
2022/11/09 00:48:34;;;;;;;67.22;36.45;;;;;;;10.83;73.50;100106.25;5011460;28;20508;-69
2022/11/09 00:50:59;;;;;;;58.60;36.72;;;;;;;10.81;73.59;100112.16;5011861;28;20076;-69
2022/11/09 00:53:25;;;;;;;64.22;36.47;;;;;;;10.80;73.74;100104.09;5012114;28;20405;-69
2022/11/09 00:55:54;;;;;;;61.35;35.22;;;;;;;10.81;73.36;100100.16;5011222;28;20068;-70
2022/11/09 00:58:20;;;;;;;65.97;36.03;;;;;;;10.79;73.95;100102.44;4994534;28;20357;-69
2022/11/09 01:00:46;;;;;;;63.55;36.50;;;;;;;10.82;73.58;100104.59;4994451;28;20025;-70
2022/11/09 01:03:11;;;;;;;63.55;37.20;;;;;;;10.75;73.89;100101.44;4994038;28;20025;-70
2022/11/09 01:05:40;;;;;;;60.42;36.28;;;;;;;10.79;73.75;100097.69;5011324;28;20030;-70
2022/11/09 01:08:07;;;;;;;66.70;37.40;;;;;;;10.79;74.07;100102.44;4994452;28;20079;-70
2022/11/09 01:10:32;;;;;;;59.08;37.28;;;;;;;10.84;74.40;100102.31;4994593;28;20026;-70
2022/11/09 01:12:58;;;;;;;56.53;35.63;;;;;;;10.72;74.75;100099.28;5011942;28;20103;-70
2022/11/09 01:15:23;;;;;;;60.83;36.33;;;;;;;10.77;74.91;100104.72;4994384;28;20059;-70
2022/11/09 01:17:49;;;;;;;61.75;37.88;;;;;;;10.75;75.01;100095.84;5011643;28;20017;-70
2022/11/09 01:20:16;;;;;;;66.57;39.90;;;;;;;10.76;75.47;100091.88;5011259;28;20030;-70
2022/11/09 01:22:41;;;;;;;64.45;38.35;;;;;;;10.80;75.46;100096.53;5026908;28;20508;-69
2022/11/09 01:25:07;;;;;;;63.38;37.15;;;;;;;10.84;75.30;100102.31;4994225;28;20037;-70
2022/11/09 01:27:33;;;;;;;59.97;37.75;;;;;;;10.82;75.18;100099.00;5018333;28;20045;-69
2022/11/09 01:29:59;;;;;;;60.35;37.95;;;;;;;10.87;75.48;100089.66;5000706;28;20470;-69
2022/11/09 01:32:24;;;;;;;63.08;37.58;;;;;;;10.85;74.85;100092.75;5018131;28;20034;-69
2022/11/09 01:34:50;;;;;;;66.15;38.15;;;;;;;10.85;75.17;100095.56;5017556;28;20088;-69
2022/11/09 01:37:15;;;;;;;62.17;38.67;;;;;;;10.79;75.10;100094.03;5018377;28;20040;-70
2022/11/09 01:39:41;;;;;;;65.15;38.58;;;;;;;10.77;75.31;100090.75;5000497;28;20503;-69
2022/11/09 01:42:06;;;;;;;61.65;37.13;;;;;;;10.80;75.20;100085.34;5017623;28;20022;-69
2022/11/09 01:44:36;;;;;;;65.22;37.80;;;;;;;10.81;75.39;100086.97;4999751;28;20037;-69
2022/11/09 01:47:11;;;;;;;61.38;36.72;;;;;;;10.84;74.99;100084.69;5017446;28;20029;-69
2022/11/09 01:49:45;;;;;;;61.47;37.90;;;;;;;10.85;75.20;100083.53;5015618;28;20057;-69
2022/11/09 01:52:20;;;;;;;61.55;37.50;;;;;;;10.83;74.97;100092.25;4998993;28;20038;-69
2022/11/09 01:54:51;;;;;;;80.07;37.15;;;;;;;10.83;74.99;100092.25;5016191;28;20125;-69
2022/11/09 01:57:35;;;;;;;65.53;37.80;;;;;;;10.82;75.10;100088.63;5015618;28;20076;-69
2022/11/09 02:00:08;;;;;;;75.03;38.05;;;;;;;10.84;75.09;100087.47;4999774;28;20029;-69
2022/11/09 02:02:35;;;;;;;61.53;37.80;;;;;;;10.81;75.32;100089.78;5017104;28;20033;-70
2022/11/09 02:05:07;;;;;;;67.18;39.25;;;;;;;10.84;75.29;100085.53;4999796;28;20034;-70
2022/11/09 02:07:34;;;;;;;65.28;37.75;;;;;;;10.88;74.47;100091.31;5016662;28;20025;-70
2022/11/09 02:10:21;;;;;;;67.00;42.22;;;;;;;10.85;75.53;100094.72;4999895;28;20075;-70
2022/11/09 02:12:47;;;;;;;71.78;41.28;;;;;;;10.85;76.06;100092.75;5017164;28;20038;-70
2022/11/09 02:15:14;;;;;;;75.65;42.22;;;;;;;10.85;76.35;100091.94;5017550;28;20467;-69
2022/11/09 02:17:41;;;;;;;73.35;43.97;;;;;;;10.82;76.40;100085.03;5017373;28;20037;-70
2022/11/09 02:20:14;;;;;;;74.65;41.38;;;;;;;10.84;76.31;100099.50;5017446;28;20080;-70
2022/11/09 02:22:40;;;;;;;64.95;39.38;;;;;;;10.82;76.51;100099.00;5016251;28;20030;-69
2022/11/09 02:25:07;;;;;;;76.80;42.20;;;;;;;10.70;76.87;100112.78;5017298;28;20030;-69
2022/11/09 02:27:34;;;;;;;72.85;43.05;;;;;;;10.62;76.98;100105.97;5017340;28;20026;-69
2022/11/09 02:30:01;;;;;;;76.53;43.30;;;;;;;10.67;76.88;100108.63;4999520;28;20492;-69
2022/11/09 02:32:28;;;;;;;76.50;42.78;;;;;;;10.62;77.30;100104.00;5017313;28;20053;-69
2022/11/09 02:34:54;;;;;;;64.25;39.85;;;;;;;10.69;77.04;100111.94;4999433;28;20030;-69
2022/11/09 02:37:33;;;;;;;72.10;42.00;;;;;;;10.72;77.02;100110.47;5014623;28;20519;-69
2022/11/09 02:40:00;;;;;;;66.45;43.78;;;;;;;10.76;76.94;100105.88;5013837;28;20026;-69
2022/11/09 02:42:25;;;;;;;75.55;41.58;;;;;;;10.71;77.28;100103.22;4995503;28;20069;-69
2022/11/09 02:44:56;;;;;;;75.30;44.72;;;;;;;10.57;77.94;100104.13;5013488;28;20481;-70
2022/11/09 02:47:22;;;;;;;67.97;43.08;;;;;;;10.44;78.65;100110.59;4995690;28;20021;-69
2022/11/09 02:49:48;;;;;;;74.03;45.58;;;;;;;10.46;78.95;100105.56;4996282;28;20467;-69
2022/11/09 02:52:14;;;;;;;77.82;45.38;;;;;;;10.43;79.44;100112.59;4981642;28;20081;-70
2022/11/09 02:54:39;;;;;;;67.40;41.00;;;;;;;10.50;78.93;100115.78;5001240;28;20026;-69
2022/11/09 02:57:05;;;;;;;79.05;46.78;;;;;;;10.53;78.72;100112.34;5028691;28;20030;-69
2022/11/09 02:59:30;;;;;;;68.20;45.08;;;;;;;10.57;79.04;100117.28;4995732;28;20026;-70
2022/11/09 03:01:56;;;;;;;77.53;46.78;;;;;;;10.57;79.21;100120.94;5013109;28;20029;-69
2022/11/09 03:04:21;;;;;;;84.45;50.25;;;;;;;10.55;79.54;100114.00;5013294;28;20033;-69
2022/11/09 03:06:47;;;;;;;82.70;50.65;;;;;;;10.57;79.20;100111.69;5012232;28;20024;-69
2022/11/09 03:09:12;;;;;;;94.18;51.28;;;;;;;10.56;79.55;100115.63;4996041;28;20026;-70
2022/11/09 03:11:40;;;;;;;92.13;54.92;;;;;;;10.46;79.94;100108.34;5013612;28;20051;-70
2022/11/09 03:14:05;;;;;;;99.78;51.97;;;;;;;10.49;79.85;100113.28;5013496;28;20025;-70
2022/11/09 03:16:31;;;;;;;80.85;50.63;;;;;;;10.51;80.12;100114.63;4995713;28;20021;-70
2022/11/09 03:18:57;;;;;;;92.45;53.28;;;;;;;10.54;79.21;100115.94;5013491;28;20432;-69
2022/11/09 03:21:23;;;;;;;89.22;50.88;;;;;;;10.51;79.17;100117.44;5012726;28;20105;-69
2022/11/09 03:23:49;;;;;;;95.50;52.00;;;;;;;10.38;80.13;100121.09;5013331;28;20034;-70
2022/11/09 03:26:15;;;;;;;96.97;52.72;;;;;;;10.44;80.35;100119.84;5013187;28;20416;-70
2022/11/09 03:28:41;;;;;;;101.38;53.85;;;;;;;10.46;79.66;100116.75;5013229;28;20033;-69
2022/11/09 03:31:08;;;;;;;94.28;53.45;;;;;;;10.49;79.60;100110.50;4995200;28;20025;-69
2022/11/09 03:33:33;;;;;;;94.38;51.85;;;;;;;10.48;79.73;100112.44;5013036;28;20112;-69
2022/11/09 03:35:59;;;;;;;99.40;53.78;;;;;;;10.32;80.45;100113.97;4994835;28;20017;-69
2022/11/09 03:38:24;;;;;;;97.40;55.35;;;;;;;10.31;80.48;100109.50;5013210;28;20412;-69
2022/11/09 03:40:50;;;;;;;93.75;58.22;;;;;;;10.29;80.74;100111.81;5012788;28;20036;-69
2022/11/09 03:43:15;;;;;;;102.10;63.70;;;;;;;10.20;81.22;100117.34;4995476;28;20041;-69
2022/11/09 03:45:41;;;;;;;94.95;59.53;;;;;;;10.00;81.69;100118.63;5012732;28;20386;-69
2022/11/09 03:48:06;;;;;;;99.38;61.67;;;;;;;9.92;82.82;100123.84;5012778;28;20050;-70
2022/11/09 03:50:33;;;;;;;93.15;54.47;;;;;;;9.82;82.82;100119.28;5010789;28;20053;-69
2022/11/09 03:52:59;;;;;;;96.70;56.55;;;;;;;9.97;82.35;100112.53;5012800;28;20029;-69
2022/11/09 03:55:26;;;;;;;94.25;55.47;;;;;;;9.91;83.00;100111.00;4994856;28;20033;-69
2022/11/09 03:57:52;;;;;;;97.50;55.45;;;;;;;9.93;82.93;100114.31;5011498;28;20479;-69
2022/11/09 04:00:20;;;;;;;103.13;58.38;;;;;;;9.82;82.90;100113.72;5026818;28;20033;-69
2022/11/09 04:02:45;;;;;;;98.78;56.20;;;;;;;9.74;82.86;100108.88;5012187;28;20509;-70
2022/11/09 04:05:11;;;;;;;92.70;54.30;;;;;;;9.73;83.52;100111.97;5012333;28;20030;-69
2022/11/09 04:07:38;;;;;;;98.65;55.00;;;;;;;9.69;83.55;100107.03;5012485;28;20026;-69
2022/11/09 04:10:05;;;;;;;108.97;59.05;;;;;;;9.81;83.23;100112.06;5011704;28;20030;-69
2022/11/09 04:12:31;;;;;;;97.88;53.80;;;;;;;9.81;83.16;100108.44;5027414;28;20148;-69
2022/11/09 04:14:56;;;;;;;94.60;53.08;;;;;;;9.91;82.49;100110.16;5012361;28;20137;-69
2022/11/09 04:17:22;;;;;;;85.95;51.03;;;;;;;10.02;80.93;100122.78;4994488;28;20030;-69
2022/11/09 04:19:47;;;;;;;86.93;50.90;;;;;;;10.08;80.92;100115.94;5012255;28;20029;-69
2022/11/09 04:22:13;;;;;;;88.20;49.10;;;;;;;10.16;79.83;100114.34;4994798;28;20032;-69
2022/11/09 04:24:38;;;;;;;85.40;48.67;;;;;;;10.20;79.75;100112.56;4993900;28;20026;-69
2022/11/09 04:27:04;;;;;;;78.63;48.70;;;;;;;10.27;79.64;100111.31;4994743;28;20044;-69
2022/11/09 04:29:29;;;;;;;76.85;48.13;;;;;;;10.08;79.87;100117.88;4994452;28;20101;-69
2022/11/09 04:31:55;;;;;;;87.18;48.95;;;;;;;10.04;79.95;100114.88;5011822;28;20029;-69
2022/11/09 04:34:20;;;;;;;82.25;47.33;;;;;;;10.18;79.50;100114.00;5012059;28;20026;-69
2022/11/09 04:36:46;;;;;;;75.95;46.17;;;;;;;10.26;78.49;100110.47;5009764;28;20029;-69
2022/11/09 04:39:11;;;;;;;74.70;47.05;;;;;;;10.33;77.39;100110.03;5026219;28;20041;-69
2022/11/09 04:41:37;;;;;;;77.25;45.95;;;;;;;10.36;77.69;100113.00;5011883;28;20036;-69
2022/11/09 04:44:03;;;;;;;80.45;45.00;;;;;;;10.36;77.06;100109.38;5011835;28;20030;-69
2022/11/09 04:46:28;;;;;;;74.05;45.88;;;;;;;10.33;77.82;100118.41;5011626;28;20037;-69
2022/11/09 04:48:54;;;;;;;82.55;47.45;;;;;;;10.30;78.11;100110.66;4994130;28;20050;-69
2022/11/09 04:51:19;;;;;;;78.88;47.15;;;;;;;10.30;77.53;100114.28;5011766;28;20053;-69
2022/11/09 04:53:45;;;;;;;75.32;45.30;;;;;;;10.30;78.23;100113.47;5010259;28;20064;-69
2022/11/09 04:56:10;;;;;;;82.15;48.13;;;;;;;10.30;77.48;100113.47;5010017;28;20459;-69
2022/11/09 04:58:36;;;;;;;74.72;45.58;;;;;;;10.32;77.38;100125.16;4994076;28;20026;-70
2022/11/09 05:01:12;;;;;;;77.25;44.45;;;;;;;10.34;77.42;100122.84;4993376;28;20029;-70
2022/11/09 05:03:39;;;;;;;72.80;45.13;;;;;;;10.29;77.79;100117.41;5003438;28;20029;-69
2022/11/09 05:06:30;;;;;;;70.22;44.85;;;;;;;10.35;77.41;100124.50;4991910;28;20133;-69
2022/11/09 05:08:50;;;;;;;80.18;43.47;;;;;;;10.29;76.96;100121.00;4997679;28;20547;-70
2022/11/09 05:11:16;;;;;;;83.25;44.42;;;;;;;10.14;78.03;100129.78;5000463;28;20065;-70
2022/11/09 05:13:41;;;;;;;68.82;40.92;;;;;;;10.22;77.32;100126.22;4991942;28;20061;-70
2022/11/09 05:16:07;;;;;;;75.30;42.35;;;;;;;9.88;78.95;100133.16;5003477;28;20021;-70
2022/11/09 05:18:33;;;;;;;80.80;44.50;;;;;;;9.39;81.28;100131.66;5011488;28;20408;-70
2022/11/09 05:20:59;;;;;;;78.78;46.67;;;;;;;9.14;82.72;100130.22;5011351;28;20029;-69
2022/11/09 05:26:09;;;;;;;83.38;46.13;;;;;;;9.64;79.35;100137.84;5011151;28;20037;-69
2022/11/09 05:28:35;;;;;;;78.45;45.85;;;;;;;9.39;81.12;100144.81;5011386;28;20030;-69
2022/11/09 05:31:00;;;;;;;78.72;45.70;;;;;;;9.34;80.91;100148.53;5011064;28;20513;-69
2022/11/09 05:33:26;;;;;;;94.43;48.55;;;;;;;9.02;82.33;100144.69;5011324;28;20025;-70
2022/11/09 05:35:55;;;;;;;86.20;50.78;;;;;;;8.82;83.36;100155.09;5011584;28;20500;-69
2022/11/09 05:41:51;;;;;;;96.93;50.13;;;;;;;9.21;80.95;100158.53;2762629;22;20050;-69
2022/11/09 05:44:17;;;;;;;103.20;53.05;;;;;;;9.12;81.08;100157.63;4972147;28;20038;-71
2022/11/09 05:46:42;;;;;;;80.88;48.75;;;;;;;9.30;80.52;100158.69;4985737;28;20026;-71
2022/11/09 05:49:07;;;;;;;87.90;50.95;;;;;;;9.36;79.41;100163.00;4990527;28;20065;-69
2022/11/09 05:51:33;;;;;;;80.32;46.55;;;;;;;9.47;79.27;100171.19;4989638;28;20053;-69
2022/11/09 05:53:58;;;;;;;100.28;50.08;;;;;;;9.50;78.67;100174.19;4991484;28;20026;-69
2022/11/09 05:56:24;;;;;;;90.22;50.40;;;;;;;9.21;81.04;100171.69;4973881;28;20030;-69
2022/11/09 05:58:49;;;;;;;89.10;50.05;;;;;;;9.25;81.31;100178.31;4991407;28;20109;-70
2022/11/09 06:01:17;;;;;;;82.97;50.95;;;;;;;9.19;82.44;100174.78;4971939;28;20041;-69
2022/11/09 06:03:43;;;;;;;86.53;50.60;;;;;;;9.33;81.94;100176.75;4984959;28;20060;-74
2022/11/09 06:06:11;;;;;;;100.95;53.90;;;;;;;9.41;81.64;100182.47;4974283;28;20084;-70
2022/11/09 06:08:37;;;;;;;84.35;52.30;;;;;;;9.35;82.82;100186.47;4992022;28;20160;-71
2022/11/09 06:11:06;;;;;;;89.57;52.45;;;;;;;9.35;82.74;100175.31;4974232;28;20117;-70
2022/11/09 06:13:32;;;;;;;93.70;52.28;;;;;;;9.52;81.47;100183.06;4975982;28;20092;-70
2022/11/09 06:15:59;;;;;;;84.88;49.92;;;;;;;9.77;81.22;100191.22;4994542;28;20485;-70
2022/11/09 06:18:27;;;;;;;95.97;52.95;;;;;;;9.71;82.08;100186.91;4993169;28;20072;-70
2022/11/09 06:20:54;;;;;;;99.80;56.72;;;;;;;9.71;82.71;100192.47;4976211;28;20542;-70
2022/11/09 06:23:28;;;;;;;99.68;58.08;;;;;;;9.87;81.92;100185.41;4977086;28;20038;-70
2022/11/09 06:25:58;;;;;;;104.70;58.30;;;;;;;9.96;82.35;100186.34;4957709;28;20105;-70
2022/11/09 06:28:24;;;;;;;91.68;54.60;;;;;;;10.07;81.97;100186.13;4975044;28;20034;-70
2022/11/09 06:30:49;;;;;;;90.57;56.38;;;;;;;10.12;81.95;100197.16;4985614;28;20038;-70
2022/11/09 06:33:15;;;;;;;109.07;58.72;;;;;;;10.25;81.30;100190.72;4994627;28;20034;-70
2022/11/09 06:35:40;;;;;;;98.13;57.40;;;;;;;10.44;80.85;100195.34;4990787;28;21804;-71
2022/11/09 06:38:07;;;;;;;98.80;57.33;;;;;;;10.52;79.69;100196.56;4987321;28;20037;-70
2022/11/09 06:40:33;;;;;;;96.32;58.25;;;;;;;10.48;80.24;100199.16;4974948;28;20117;-70
2022/11/09 06:42:59;;;;;;;98.45;58.53;;;;;;;10.58;80.17;100200.06;4975690;28;20512;-70
2022/11/09 06:45:27;;;;;;;96.95;59.25;;;;;;;10.64;80.34;100202.41;4994413;28;20500;-70
2022/11/09 06:47:57;;;;;;;94.85;57.97;;;;;;;10.57;80.81;100201.22;4993809;28;20022;-70
2022/11/09 06:50:22;;;;;;;98.70;63.03;;;;;;;10.75;80.33;100200.22;4972912;28;20030;-70
2022/11/09 06:52:48;;;;;;;95.10;58.70;;;;;;;10.87;80.20;100196.00;4972899;28;20038;-69
2022/11/09 06:55:13;;;;;;;101.45;59.25;;;;;;;10.95;80.29;100192.41;4989064;28;20102;-70
2022/11/09 06:57:39;;;;;;;96.82;56.53;;;;;;;11.04;80.50;100193.28;4972152;28;20124;-71
2022/11/09 07:00:06;;;;;;;108.75;59.33;;;;;;;11.03;80.67;100193.59;4973347;28;20609;-70
2022/11/09 07:02:31;;;;;;;100.82;59.03;;;;;;;11.03;81.21;100190.81;4977634;28;20419;-70
2022/11/09 07:04:57;;;;;;;101.95;61.80;;;;;;;11.10;80.29;100194.00;4992681;28;20117;-71
2022/11/09 07:07:22;;;;;;;99.88;55.78;;;;;;;10.93;82.88;100189.13;4994053;28;20049;-70
2022/11/09 07:09:48;;;;;;;100.43;60.20;;;;;;;11.07;82.87;100192.66;4992574;28;20062;-72
2022/11/09 07:12:13;;;;;;;100.18;57.55;;;;;;;11.41;80.37;100181.97;4989596;28;20033;-66
2022/11/09 07:14:39;;;;;;;106.03;57.92;;;;;;;11.47;80.10;100183.44;4989123;28;20075;-66
2022/11/09 07:17:04;;;;;;;106.00;59.60;;;;;;;11.61;80.31;100176.91;4992556;28;20104;-70
2022/11/09 07:19:30;;;;;;;106.10;62.10;;;;;;;11.64;81.33;100174.28;4973121;28;20033;-66
2022/11/09 07:21:56;;;;;;;102.47;59.20;;;;;;;11.62;81.09;100173.78;4976734;28;20117;-72
2022/11/09 07:24:22;;;;;;;103.20;58.40;;;;;;;11.85;79.85;100175.63;4974384;28;20523;-77
2022/11/09 07:26:48;;;;;;;94.78;58.70;;;;;;;11.63;80.36;100171.78;4990574;28;20437;-73
2022/11/09 07:29:14;;;;;;;103.72;59.15;;;;;;;11.60;81.57;100169.66;4980953;28;20050;-72
2022/11/09 07:31:39;;;;;;;95.70;58.08;;;;;;;11.88;80.97;100174.97;4991514;28;20173;-72
2022/11/09 07:34:05;;;;;;;94.70;56.88;;;;;;;11.94;80.35;100177.34;4992308;28;20045;-74
2022/11/09 07:36:31;;;;;;;97.45;57.03;;;;;;;11.72;81.45;100164.25;4993452;28;20030;-74
2022/11/09 07:38:57;;;;;;;94.45;56.63;;;;;;;11.75;81.69;100174.78;4965404;28;20022;-74
2022/11/09 07:41:23;;;;;;;90.38;55.42;;;;;;;11.70;81.46;100174.13;4982166;28;20031;-74
2022/11/09 07:43:48;;;;;;;91.63;57.70;;;;;;;11.80;82.25;100179.41;4973860;28;20528;-70
2022/11/09 07:46:13;;;;;;;85.22;53.65;;;;;;;11.97;81.27;100173.03;4989655;28;20411;-72
2022/11/09 07:48:39;;;;;;;109.10;57.80;;;;;;;12.12;81.09;100170.94;4992352;28;20037;-74
2022/11/09 07:51:04;;;;;;;101.65;55.70;;;;;;;12.19;81.18;100172.13;4992833;28;20562;-73
2022/11/09 07:53:30;;;;;;;89.20;56.42;;;;;;;12.44;79.97;100175.25;4990610;28;20030;-71
2022/11/09 07:55:58;;;;;;;92.55;56.70;;;;;;;12.46;79.25;100181.34;4993436;28;20428;-70
2022/11/09 07:58:23;;;;;;;99.72;55.65;;;;;;;12.44;79.68;100178.06;4993419;28;20507;-70
2022/11/09 08:00:49;;;;;;;94.72;55.80;;;;;;;12.56;78.65;100173.75;4992046;28;20026;-70
2022/11/09 08:03:17;;;;;;;93.95;58.65;;;;;;;12.58;78.10;100177.88;4993413;28;20037;-71
2022/11/09 08:05:43;;;;;;;101.47;60.80;;;;;;;12.74;77.20;100178.19;4993253;28;20489;-71
2022/11/09 08:08:14;;;;;;;101.82;59.10;;;;;;;12.91;76.31;100184.91;4992858;28;20027;-71
2022/11/09 08:10:40;;;;;;;102.75;57.15;;;;;;;13.18;75.07;100178.06;4992738;28;20473;-69
2022/11/09 08:13:09;;;;;;;101.47;56.55;;;;;;;13.41;73.83;100180.63;4990912;28;20121;-69
2022/11/09 08:15:35;;;;;;;90.03;52.53;;;;;;;13.31;73.90;100181.84;4988927;28;20019;-69
2022/11/09 08:29:48;;;;;;;85.30;48.40;;;;;;;14.35;68.04;100180.75;5048234;28;20608;-69
2022/11/09 08:32:13;;;;;;;84.53;52.72;;;;;;;14.13;69.22;100181.91;5037369;28;20583;-69
2022/11/09 08:34:39;;;;;;;88.13;50.05;;;;;;;14.04;69.32;100179.19;5041989;28;20029;-69
2022/11/09 08:37:04;;;;;;;98.18;53.20;;;;;;;14.00;69.21;100176.22;5042668;28;20017;-69
2022/11/09 08:39:30;;;;;;;85.82;50.67;;;;;;;14.09;69.38;100175.34;5014503;28;20037;-69
2022/11/09 08:41:55;;;;;;;80.93;49.35;;;;;;;14.04;69.09;100179.97;5032284;28;20090;-69
2022/11/09 08:44:21;;;;;;;88.80;51.13;;;;;;;14.23;68.95;100177.88;5036994;28;20022;-69
2022/11/09 08:46:46;;;;;;;85.22;51.03;;;;;;;14.50;67.38;100178.50;5045874;28;20087;-69
2022/11/09 08:49:12;;;;;;;81.60;50.08;;;;;;;14.51;67.49;100175.31;5046255;28;20018;-69
2022/11/09 08:51:37;;;;;;;86.40;51.25;;;;;;;14.49;67.06;100180.47;5027372;28;20049;-69
2022/11/09 08:54:03;;;;;;;84.03;48.70;;;;;;;14.64;66.14;100181.00;5031762;28;20094;-71
2022/11/09 08:56:28;;;;;;;77.93;47.70;;;;;;;14.76;66.22;100181.09;5035180;28;20022;-71
2022/11/09 08:58:54;;;;;;;79.00;49.05;;;;;;;14.74;65.01;100184.28;5036618;28;20026;-70
2022/11/09 09:01:19;;;;;;;91.72;46.22;;;;;;;14.96;65.17;100185.06;5025112;28;20045;-70
2022/11/09 09:03:45;;;;;;;76.32;48.13;;;;;;;14.84;65.13;100177.38;5045059;28;20057;-71
2022/11/09 09:06:11;;;;;;;82.43;47.78;;;;;;;14.79;65.69;100180.41;5047228;28;20454;-71
2022/11/09 09:08:36;;;;;;;76.35;46.00;;;;;;;15.05;64.87;100173.69;5029300;28;20079;-72
2022/11/09 09:11:05;;;;;;;78.13;46.05;;;;;;;15.28;63.90;100174.06;5036301;28;20715;-72
2022/11/09 09:13:31;;;;;;;84.50;46.20;;;;;;;15.41;63.15;100174.09;5053403;28;20056;-73
2022/11/09 09:15:57;;;;;;;80.03;48.67;;;;;;;15.49;63.83;100166.69;5038801;28;20467;-72
2022/11/09 09:18:23;;;;;;;80.25;49.08;;;;;;;15.38;64.20;100164.31;5037479;28;20029;-71
2022/11/09 09:20:49;;;;;;;83.72;48.60;;;;;;;15.26;64.95;100170.78;5030325;28;20293;-72
2022/11/09 09:23:15;;;;;;;76.15;47.97;;;;;;;15.16;64.51;100165.59;5062868;28;20021;-71
2022/11/09 09:25:42;;;;;;;75.55;47.40;;;;;;;15.39;63.17;100151.06;5041604;28;20302;-71
2022/11/09 09:28:08;;;;;;;70.68;46.25;;;;;;;15.66;62.47;100160.00;5041478;28;20038;-71
2022/11/09 09:30:33;;;;;;;69.63;44.50;;;;;;;15.85;61.56;100146.13;5020961;28;20029;-71
2022/11/09 09:32:59;;;;;;;71.57;44.50;;;;;;;15.92;62.42;100151.19;5018280;28;20025;-71
2022/11/09 09:35:26;;;;;;;67.53;41.88;;;;;;;16.00;61.12;100146.59;5034669;28;20471;-71
2022/11/09 09:37:52;;;;;;;74.40;44.72;;;;;;;15.96;61.16;100138.00;5022334;28;20026;-71
2022/11/09 09:40:42;;;;;;;69.43;46.17;;;;;;;15.91;61.03;100138.28;5043624;28;20082;-72
2022/11/09 09:43:24;;;;;;;71.63;45.25;;;;;;;15.95;60.67;100127.09;5034397;28;20025;-73
2022/11/09 09:45:53;;;;;;;74.53;46.85;;;;;;;15.83;61.89;100131.56;5033431;28;20025;-72
2022/11/09 10:01:43;;;;;;;75.85;45.70;;;;;;;17.00;56.27;100121.63;5095506;27;20988;-73
2022/11/09 10:04:25;;;;;;;78.43;45.17;;;;;;;17.05;57.45;100114.88;5101617;28;20093;-69
2022/11/09 10:06:58;;;;;;;71.07;45.22;;;;;;;16.96;57.48;100107.38;5091305;28;20020;-69
2022/11/09 10:09:51;;;;;;;77.47;48.35;;;;;;;16.91;57.30;100107.66;5081772;28;20032;-70
2022/11/09 10:12:40;;;;;;;75.70;47.30;;;;;;;16.59;57.21;100101.94;5103812;28;20062;-70
2022/11/09 10:15:16;;;;;;;75.22;47.17;;;;;;;16.62;57.48;100103.22;5093563;28;20110;-71
2022/11/09 10:18:00;;;;;;;77.78;46.72;;;;;;;16.74;56.86;100099.50;5099540;28;20032;-72
2022/11/09 10:20:43;;;;;;;72.80;42.00;;;;;;;16.72;57.26;100090.56;5069960;28;20059;-71
2022/11/09 10:23:20;;;;;;;73.43;43.97;;;;;;;16.89;56.25;100095.88;5086930;28;20128;-69
2022/11/09 10:25:53;;;;;;;62.45;41.60;;;;;;;16.54;58.10;100091.72;5086744;28;20517;-69
2022/11/09 10:28:25;;;;;;;75.75;44.47;;;;;;;16.62;57.40;100092.72;5107325;28;20117;-70
2022/11/09 10:30:50;;;;;;;71.18;42.78;;;;;;;16.90;56.59;100091.88;5097371;28;20063;-70
2022/11/09 10:33:20;;;;;;;64.10;41.40;;;;;;;16.86;56.70;100090.94;5100502;28;20055;-72
2022/11/09 10:35:53;;;;;;;66.10;42.55;;;;;;;16.94;56.48;100083.47;5092682;28;20038;-72
2022/11/09 10:38:28;;;;;;;73.05;43.22;;;;;;;17.08;56.20;100085.88;5103279;28;20084;-71
2022/11/09 10:41:01;;;;;;;66.85;43.65;;;;;;;16.84;56.03;100077.22;5102009;28;20504;-69
2022/11/09 10:43:26;;;;;;;77.55;43.55;;;;;;;16.82;56.68;100079.53;5098900;28;20024;-69
2022/11/09 10:46:04;;;;;;;81.65;47.53;;;;;;;16.78;56.95;100078.66;5099259;28;20124;-67
2022/11/09 10:48:35;;;;;;;87.03;47.78;;;;;;;16.82;56.79;100073.91;5105309;28;20023;-66
2022/11/09 10:51:01;;;;;;;72.18;44.17;;;;;;;17.05;56.83;100069.69;5091777;28;20111;-66
2022/11/09 10:53:30;;;;;;;61.08;40.25;;;;;;;16.95;56.04;100066.16;5085556;28;20090;-67
2022/11/09 10:56:26;;;;;;;60.17;39.67;;;;;;;17.06;54.91;100074.94;5098969;28;20034;-67
2022/11/09 10:58:52;;;;;;;64.13;40.47;;;;;;;17.14;56.15;100061.84;5067983;28;20524;-68
2022/11/09 11:01:21;;;;;;;67.82;42.65;;;;;;;17.23;54.09;100064.47;5092221;28;20124;-67
2022/11/09 11:03:52;;;;;;;69.20;41.05;;;;;;;17.28;54.36;100061.34;5069776;28;20039;-67
2022/11/09 11:06:27;;;;;;;62.38;38.28;;;;;;;17.21;55.30;100053.53;5072766;28;20030;-67
2022/11/09 11:09:15;;;;;;;63.35;36.78;;;;;;;17.53;54.05;100047.81;5076812;28;20091;-67
2022/11/09 11:11:40;;;;;;;60.53;38.35;;;;;;;17.28;54.44;100052.06;5074381;28;20095;-66
2022/11/09 11:14:18;;;;;;;56.17;37.38;;;;;;;17.40;54.31;100037.81;5082707;28;20025;-69
2022/11/09 11:16:45;;;;;;;66.93;40.05;;;;;;;17.45;53.44;100036.72;5076609;28;20059;-71
2022/11/09 11:19:25;;;;;;;57.95;36.08;;;;;;;17.40;52.99;100040.66;5093092;28;20055;-70
2022/11/09 11:22:22;;;;;;;61.38;35.03;;;;;;;17.56;52.74;100039.78;5091257;28;20031;-70
2022/11/09 11:24:52;;;;;;;56.45;37.17;;;;;;;17.33;52.56;100038.47;5088686;28;20479;-71
2022/11/09 11:27:27;;;;;;;62.25;35.20;;;;;;;17.53;52.09;100033.69;5077451;28;20550;-72
2022/11/09 11:30:10;;;;;;;52.83;31.45;;;;;;;17.40;52.51;100030.13;5092802;28;20035;-69
2022/11/09 11:32:35;;;;;;;48.35;30.38;;;;;;;17.36;51.28;100019.94;5090790;28;20039;-70
2022/11/09 11:35:04;;;;;;;46.30;31.92;;;;;;;17.56;51.04;100017.16;5079842;28;20028;-70
2022/11/09 11:37:50;;;;;;;52.83;31.02;;;;;;;17.61;50.18;100012.03;5079708;28;20107;-70
2022/11/09 11:40:26;;;;;;;51.50;32.88;;;;;;;17.85;51.13;100014.94;5083681;28;20032;-73
2022/11/09 11:43:21;;;;;;;50.65;31.92;;;;;;;17.81;50.15;100021.34;5080717;28;20031;-72
2022/11/09 11:46:11;;;;;;;48.50;31.92;;;;;;;17.94;50.28;100013.56;5082325;28;20032;-72